Time;durP1;ratioP1;P1;durP2;ratioP2;P2;SDS_P1;SDS_P2;PMS_P1;PMS_P2;Temp;Humidity;BMP_temperature;BMP_pressure;BME280_temperature;BME280_humidity;BME280_pressure;Samples;Min_cycle;Max_cycle;Signal;HPM_P1;HPM_P2
2021/09/15 00:00:29;;;;;;;11.25;10.25;;;;;;;;;;5124811;27;24974;-59
2021/09/15 00:02:54;;;;;;;11.25;10.50;;;;;;;;;;5124739;27;24413;-60
2021/09/15 00:05:19;;;;;;;11.38;10.48;;;;;;;;;;5124383;27;24409;-60
2021/09/15 00:07:44;;;;;;;10.90;10.10;;;;;;;;;;5122632;27;24413;-59
2021/09/15 00:10:10;;;;;;;10.57;9.77;;;;;;;;;;5126793;27;24451;-59
2021/09/15 00:12:35;;;;;;;11.03;10.23;;;;;;;;;;5124186;27;24466;-60
2021/09/15 00:15:00;;;;;;;10.02;9.32;;;;;;;;;;5121444;27;24405;-60
2021/09/15 00:17:25;;;;;;;9.57;8.87;;;;;;;;;;5122166;27;24440;-59
2021/09/15 00:19:51;;;;;;;9.67;8.97;;;;;;;;;;5119122;27;24459;-60
2021/09/15 00:22:16;;;;;;;9.90;9.10;;;;;;;;;;5123432;27;24471;-60
2021/09/15 00:24:41;;;;;;;9.80;9.10;;;;;;;;;;5124197;27;24417;-60
2021/09/15 00:27:06;;;;;;;11.40;10.40;;;;;;;;;;5122121;27;24433;-60
2021/09/15 00:29:31;;;;;;;10.07;9.38;;;;;;;;;;5126049;28;24428;-60
2021/09/15 00:31:56;;;;;;;10.40;9.60;;;;;;;;;;5126514;27;25028;-60
2021/09/15 00:34:22;;;;;;;9.90;9.20;;;;;;;;;;5126166;28;24420;-60
2021/09/15 00:36:47;;;;;;;11.10;10.30;;;;;;;;;;5125575;27;24421;-60
2021/09/15 00:39:12;;;;;;;10.85;10.05;;;;;;;;;;5122751;27;24433;-61
2021/09/15 00:41:37;;;;;;;10.13;9.30;;;;;;;;;;5126912;28;24409;-59
2021/09/15 00:44:07;;;;;;;10.40;9.60;;;;;;;;;;5125602;28;24405;-60
2021/09/15 00:46:33;;;;;;;9.77;9.07;;;;;;;;;;5126429;28;24438;-60
2021/09/15 00:48:58;;;;;;;9.70;9.10;;;;;;;;;;5126269;28;24413;-60
2021/09/15 00:51:24;;;;;;;10.70;9.90;;;;;;;;;;5121534;28;24423;-60
2021/09/15 00:53:49;;;;;;;10.02;9.30;;;;;;;;;;5126263;28;25149;-60
2021/09/15 00:56:14;;;;;;;9.40;8.80;;;;;;;;;;5124966;28;24924;-60
2021/09/15 00:58:40;;;;;;;10.30;9.60;;;;;;;;;;5127022;28;24425;-60
2021/09/15 01:01:05;;;;;;;10.82;10.13;;;;;;;;;;5126232;28;24416;-60
2021/09/15 01:03:30;;;;;;;10.70;9.90;;;;;;;;;;5126218;28;24466;-60
2021/09/15 01:05:55;;;;;;;10.35;9.65;;;;;;;;;;5124829;27;25020;-60
2021/09/15 01:08:21;;;;;;;10.10;9.30;;;;;;;;;;5124990;28;24436;-60
2021/09/15 01:10:46;;;;;;;10.70;9.90;;;;;;;;;;5125396;27;24426;-60
2021/09/15 01:13:11;;;;;;;10.70;10.00;;;;;;;;;;5125067;28;24413;-60
2021/09/15 01:15:36;;;;;;;10.47;9.67;;;;;;;;;;5116694;28;24420;-60
2021/09/15 01:18:12;;;;;;;9.93;9.23;;;;;;;;;;5122294;27;24465;-60
2021/09/15 01:20:37;;;;;;;9.80;8.90;;;;;;;;;;5130721;27;24460;-60
2021/09/15 01:23:02;;;;;;;10.30;9.60;;;;;;;;;;5118980;27;24452;-60
2021/09/15 01:25:27;;;;;;;10.65;9.85;;;;;;;;;;5123196;27;24947;-60
2021/09/15 01:27:52;;;;;;;10.20;9.50;;;;;;;;;;5130264;27;24454;-60
2021/09/15 01:30:18;;;;;;;9.90;9.20;;;;;;;;;;5129519;27;24480;-60
2021/09/15 01:32:43;;;;;;;9.63;8.93;;;;;;;;;;5129827;27;24433;-60
2021/09/15 01:35:08;;;;;;;9.98;9.27;;;;;;;;;;5122481;27;24611;-60
2021/09/15 01:37:33;;;;;;;10.57;9.77;;;;;;;;;;5128562;27;24440;-60
2021/09/15 01:39:58;;;;;;;9.10;8.50;;;;;;;;;;5127079;27;24520;-60
2021/09/15 01:42:23;;;;;;;10.40;9.60;;;;;;;;;;5126964;27;24455;-60
2021/09/15 01:44:48;;;;;;;9.90;9.20;;;;;;;;;;5129791;27;24409;-60
2021/09/15 01:47:15;;;;;;;10.45;9.63;;;;;;;;;;5127686;27;24869;-60
2021/09/15 01:49:41;;;;;;;9.90;9.13;;;;;;;;;;5129343;27;24410;-60
2021/09/15 01:52:06;;;;;;;10.55;9.75;;;;;;;;;;5119737;27;24428;-61
2021/09/15 01:54:32;;;;;;;11.07;10.18;;;;;;;;;;5126159;27;24471;-59
2021/09/15 01:56:57;;;;;;;9.95;9.25;;;;;;;;;;5125832;27;24413;-60
2021/09/15 01:59:22;;;;;;;10.40;9.68;;;;;;;;;;5127880;27;24436;-60
2021/09/15 02:01:48;;;;;;;10.15;9.45;;;;;;;;;;5130289;27;25018;-60
2021/09/15 02:04:13;;;;;;;9.60;8.90;;;;;;;;;;5128016;27;24412;-60
2021/09/15 02:06:38;;;;;;;10.77;10.07;;;;;;;;;;5129344;27;24883;-60
2021/09/15 02:09:04;;;;;;;10.07;9.37;;;;;;;;;;5126573;27;24814;-59
2021/09/15 02:11:29;;;;;;;10.18;9.27;;;;;;;;;;5129367;27;24505;-60
2021/09/15 02:13:54;;;;;;;10.60;9.80;;;;;;;;;;5127678;27;24419;-60
2021/09/15 02:16:20;;;;;;;9.87;9.17;;;;;;;;;;5129178;27;24943;-59
2021/09/15 02:18:45;;;;;;;9.67;8.97;;;;;;;;;;5128684;27;24524;-59
2021/09/15 02:21:10;;;;;;;10.03;9.33;;;;;;;;;;5119781;27;25007;-60
2021/09/15 02:23:36;;;;;;;10.38;9.57;;;;;;;;;;5128722;27;24968;-60
2021/09/15 02:26:01;;;;;;;10.10;9.40;;;;;;;;;;5128573;27;24413;-60
2021/09/15 02:28:26;;;;;;;10.20;9.50;;;;;;;;;;5128842;27;24424;-60
2021/09/15 02:30:51;;;;;;;10.07;9.37;;;;;;;;;;5128588;27;24420;-60
2021/09/15 02:33:16;;;;;;;10.75;9.85;;;;;;;;;;5128690;27;24490;-60
2021/09/15 02:35:41;;;;;;;10.43;9.52;;;;;;;;;;5127255;27;24469;-60
2021/09/15 02:38:06;;;;;;;10.80;10.00;;;;;;;;;;5128745;27;24542;-59
2021/09/15 02:40:32;;;;;;;10.15;9.45;;;;;;;;;;5126990;27;24436;-60
2021/09/15 02:42:57;;;;;;;8.80;8.20;;;;;;;;;;5128920;27;24401;-59
2021/09/15 02:45:22;;;;;;;10.25;9.55;;;;;;;;;;5127842;27;24912;-61
2021/09/15 02:47:48;;;;;;;10.50;9.70;;;;;;;;;;5128521;27;24478;-60
2021/09/15 02:50:13;;;;;;;10.00;9.20;;;;;;;;;;5126004;27;24505;-60
2021/09/15 02:52:38;;;;;;;10.55;9.65;;;;;;;;;;5121226;27;24960;-60
2021/09/15 02:55:03;;;;;;;10.80;10.00;;;;;;;;;;5127710;27;24421;-60
2021/09/15 02:57:28;;;;;;;10.00;9.20;;;;;;;;;;5128055;27;24421;-60
2021/09/15 02:59:53;;;;;;;9.93;9.23;;;;;;;;;;5125965;27;24558;-59
2021/09/15 03:02:18;;;;;;;9.13;8.50;;;;;;;;;;5128230;27;24421;-60
2021/09/15 03:04:44;;;;;;;10.40;9.60;;;;;;;;;;5117054;27;24793;-59
2021/09/15 03:07:09;;;;;;;10.07;9.27;;;;;;;;;;5127521;27;24428;-59
2021/09/15 03:09:34;;;;;;;10.27;9.48;;;;;;;;;;5127992;27;25008;-59
2021/09/15 03:11:59;;;;;;;10.70;9.87;;;;;;;;;;5126828;27;24520;-60
2021/09/15 03:14:24;;;;;;;10.40;9.60;;;;;;;;;;5121096;27;24444;-59
2021/09/15 03:16:50;;;;;;;9.90;9.20;;;;;;;;;;5122970;27;24428;-59
2021/09/15 03:19:15;;;;;;;9.97;9.17;;;;;;;;;;5125238;27;25087;-59
2021/09/15 03:21:41;;;;;;;10.40;9.70;;;;;;;;;;5128323;27;24667;-59
2021/09/15 03:24:06;;;;;;;9.85;9.15;;;;;;;;;;5127944;27;24530;-60
2021/09/15 03:26:32;;;;;;;9.38;8.68;;;;;;;;;;5120785;27;25028;-59
2021/09/15 03:28:57;;;;;;;10.20;9.40;;;;;;;;;;5121474;27;24981;-59
2021/09/15 03:31:22;;;;;;;10.40;9.60;;;;;;;;;;5116204;27;24473;-60
2021/09/15 03:33:47;;;;;;;10.00;9.30;;;;;;;;;;5119384;27;24441;-61
2021/09/15 03:36:12;;;;;;;10.30;9.52;;;;;;;;;;5126107;27;24504;-59
2021/09/15 03:38:37;;;;;;;10.70;9.90;;;;;;;;;;5125376;27;24485;-60
2021/09/15 03:41:03;;;;;;;10.50;9.80;;;;;;;;;;5125774;27;24441;-59
2021/09/15 03:43:28;;;;;;;10.20;9.30;;;;;;;;;;5111579;27;24499;-59
2021/09/15 03:45:53;;;;;;;10.50;9.70;;;;;;;;;;5113831;27;24449;-58
2021/09/15 03:48:18;;;;;;;9.38;8.68;;;;;;;;;;5113084;27;24409;-59
2021/09/15 03:50:43;;;;;;;9.73;8.93;;;;;;;;;;5117690;27;24421;-60
2021/09/15 03:53:08;;;;;;;9.70;9.00;;;;;;;;;;5116855;27;25052;-59
2021/09/15 03:55:34;;;;;;;9.98;9.18;;;;;;;;;;5119894;27;24420;-59
2021/09/15 03:57:59;;;;;;;9.35;8.75;;;;;;;;;;5120368;27;24414;-59
2021/09/15 04:00:24;;;;;;;10.20;9.40;;;;;;;;;;5123186;27;25007;-59
2021/09/15 04:02:49;;;;;;;9.40;8.80;;;;;;;;;;5127508;27;24385;-59
2021/09/15 04:05:14;;;;;;;10.95;10.10;;;;;;;;;;5121117;27;24504;-60
2021/09/15 04:07:40;;;;;;;9.10;8.40;;;;;;;;;;5126588;27;24413;-59
2021/09/15 04:10:05;;;;;;;11.13;10.32;;;;;;;;;;5126239;27;24521;-59
2021/09/15 04:12:30;;;;;;;10.17;9.47;;;;;;;;;;5127367;27;24496;-59
2021/09/15 04:14:56;;;;;;;10.20;9.40;;;;;;;;;;5127124;27;24493;-59
2021/09/15 04:17:21;;;;;;;11.40;10.50;;;;;;;;;;5125895;27;24781;-59
2021/09/15 04:19:46;;;;;;;10.40;9.70;;;;;;;;;;5124910;27;24483;-59
2021/09/15 04:22:17;;;;;;;10.57;9.73;;;;;;;;;;5115352;27;24536;-59
2021/09/15 04:31:12;;;;;;;10.00;9.20;;;;;;;;;;5116327;27;24785;-60
2021/09/15 04:32:57;;;;;;;10.40;9.60;;;;;;;;;;5126096;28;24757;-59
2021/09/15 04:35:23;;;;;;;10.55;9.75;;;;;;;;;;5126457;28;24974;-60
2021/09/15 04:37:48;;;;;;;9.82;9.13;;;;;;;;;;5122059;28;24414;-59
2021/09/15 04:40:13;;;;;;;10.10;9.23;;;;;;;;;;5120787;28;24837;-60
2021/09/15 04:42:38;;;;;;;10.25;9.55;;;;;;;;;;5109361;28;24410;-59
2021/09/15 04:45:04;;;;;;;9.60;8.90;;;;;;;;;;5116491;28;24425;-60
2021/09/15 04:47:29;;;;;;;10.60;9.80;;;;;;;;;;5107456;28;24919;-59
2021/09/15 04:49:54;;;;;;;9.82;9.13;;;;;;;;;;5110488;28;25123;-59
2021/09/15 04:52:19;;;;;;;9.90;9.20;;;;;;;;;;5116616;27;24432;-59
2021/09/15 04:54:44;;;;;;;11.43;10.63;;;;;;;;;;5114057;27;24417;-59
2021/09/15 04:57:09;;;;;;;10.65;9.85;;;;;;;;;;5112201;27;24894;-59
2021/09/15 04:59:36;;;;;;;10.55;9.75;;;;;;;;;;5112189;27;24538;-59
2021/09/15 05:02:01;;;;;;;10.75;9.95;;;;;;;;;;5123993;27;24460;-59
2021/09/15 05:04:26;;;;;;;10.00;9.30;;;;;;;;;;5126410;27;24999;-60
2021/09/15 05:06:52;;;;;;;11.20;10.30;;;;;;;;;;5125217;27;24462;-59
2021/09/15 05:09:17;;;;;;;10.77;9.98;;;;;;;;;;5125842;27;24431;-59
2021/09/15 05:11:43;;;;;;;10.63;9.83;;;;;;;;;;5126351;27;24421;-59
2021/09/15 05:14:08;;;;;;;10.75;9.95;;;;;;;;;;5125844;27;24485;-59
2021/09/15 05:16:33;;;;;;;8.88;8.27;;;;;;;;;;5123149;27;24495;-59
2021/09/15 05:18:58;;;;;;;11.25;10.45;;;;;;;;;;5127540;27;24421;-58
2021/09/15 05:21:23;;;;;;;10.40;9.70;;;;;;;;;;5125759;27;24441;-59
2021/09/15 05:23:48;;;;;;;9.93;9.13;;;;;;;;;;5117948;27;24406;-59
2021/09/15 05:26:14;;;;;;;11.30;10.40;;;;;;;;;;5114866;27;24416;-59
2021/09/15 05:28:39;;;;;;;9.95;9.25;;;;;;;;;;5109773;28;24444;-59
2021/09/15 05:31:04;;;;;;;9.35;8.73;;;;;;;;;;5124743;27;24412;-59
2021/09/15 05:33:29;;;;;;;9.98;9.20;;;;;;;;;;5129227;27;24433;-59
2021/09/15 05:35:55;;;;;;;8.70;8.10;;;;;;;;;;5129919;27;24442;-59
2021/09/15 05:38:20;;;;;;;10.63;9.83;;;;;;;;;;5129820;27;24381;-58
2021/09/15 05:40:45;;;;;;;11.43;10.52;;;;;;;;;;5129846;27;24409;-58
2021/09/15 05:43:10;;;;;;;10.20;9.50;;;;;;;;;;5129455;27;24420;-58
2021/09/15 05:45:35;;;;;;;10.53;9.63;;;;;;;;;;5129896;27;24384;-59
2021/09/15 05:48:00;;;;;;;9.73;8.93;;;;;;;;;;5129447;27;24967;-59
2021/09/15 05:50:26;;;;;;;9.63;8.93;;;;;;;;;;5129815;27;24490;-59
2021/09/15 05:52:51;;;;;;;9.20;8.50;;;;;;;;;;5129019;27;24485;-58
2021/09/15 05:55:16;;;;;;;9.37;8.67;;;;;;;;;;5129333;27;24737;-59
2021/09/15 05:57:41;;;;;;;9.25;8.60;;;;;;;;;;5129647;27;24951;-59
2021/09/15 06:00:07;;;;;;;9.30;8.50;;;;;;;;;;5129400;27;24413;-59
2021/09/15 06:02:32;;;;;;;10.60;9.80;;;;;;;;;;5128650;27;25263;-59
2021/09/15 06:04:57;;;;;;;10.83;9.93;;;;;;;;;;5128153;27;24466;-59
2021/09/15 06:07:23;;;;;;;10.93;10.13;;;;;;;;;;5129491;27;24401;-60
2021/09/15 06:09:48;;;;;;;10.50;9.70;;;;;;;;;;5125772;27;24425;-59
2021/09/15 06:12:13;;;;;;;9.77;9.07;;;;;;;;;;5125370;27;24486;-59
2021/09/15 06:14:38;;;;;;;9.60;8.90;;;;;;;;;;5126544;27;24497;-59
2021/09/15 06:17:04;;;;;;;10.60;9.90;;;;;;;;;;5125754;27;24940;-59
2021/09/15 06:19:29;;;;;;;8.90;8.30;;;;;;;;;;5128686;27;24445;-59
2021/09/15 06:21:54;;;;;;;10.80;9.90;;;;;;;;;;5129273;27;24818;-59
2021/09/15 06:24:19;;;;;;;10.07;9.17;;;;;;;;;;5127221;27;24413;-59
2021/09/15 06:26:47;;;;;;;9.17;8.57;;;;;;;;;;5123715;27;24416;-59
2021/09/15 06:29:12;;;;;;;10.00;9.20;;;;;;;;;;5126602;27;24436;-59
2021/09/15 06:31:39;;;;;;;9.00;8.30;;;;;;;;;;5129055;27;24952;-59
2021/09/15 06:34:05;;;;;;;10.73;9.82;;;;;;;;;;5128102;27;24445;-59
2021/09/15 06:36:30;;;;;;;11.02;10.20;;;;;;;;;;5127656;27;24424;-59
2021/09/15 06:38:56;;;;;;;9.53;8.83;;;;;;;;;;5126191;27;25035;-58
2021/09/15 06:41:21;;;;;;;10.30;9.60;;;;;;;;;;5128082;27;24369;-59
2021/09/15 06:43:46;;;;;;;8.70;8.10;;;;;;;;;;5128463;27;24604;-58
2021/09/15 06:46:11;;;;;;;11.43;10.53;;;;;;;;;;5129151;27;24396;-59
2021/09/15 06:48:36;;;;;;;9.70;9.00;;;;;;;;;;5127231;27;24459;-58
2021/09/15 06:51:02;;;;;;;10.93;10.02;;;;;;;;;;5122644;27;25062;-59
2021/09/15 06:53:27;;;;;;;10.43;9.63;;;;;;;;;;5121857;27;24424;-60
2021/09/15 06:55:52;;;;;;;9.80;9.10;;;;;;;;;;5126140;27;24437;-59
2021/09/15 06:58:17;;;;;;;10.50;9.60;;;;;;;;;;5126729;27;24409;-60
2021/09/15 07:00:42;;;;;;;9.90;9.10;;;;;;;;;;5127502;27;24543;-59
2021/09/15 07:03:07;;;;;;;9.27;8.57;;;;;;;;;;5119072;27;24421;-60
2021/09/15 07:05:33;;;;;;;8.30;7.70;;;;;;;;;;5114553;27;24422;-59
2021/09/15 07:07:58;;;;;;;10.37;9.57;;;;;;;;;;5109105;27;24416;-59
2021/09/15 07:10:23;;;;;;;9.23;8.53;;;;;;;;;;5107660;28;24781;-59
2021/09/15 07:12:48;;;;;;;8.80;8.20;;;;;;;;;;5114416;27;24417;-59
2021/09/15 07:15:14;;;;;;;8.20;7.60;;;;;;;;;;5116626;27;24406;-59
2021/09/15 07:17:40;;;;;;;9.93;9.23;;;;;;;;;;5112511;27;24909;-59
2021/09/15 07:20:05;;;;;;;8.90;8.30;;;;;;;;;;5127250;27;24999;-59
2021/09/15 07:22:31;;;;;;;8.80;8.20;;;;;;;;;;5121526;27;24520;-59
2021/09/15 07:24:56;;;;;;;8.80;8.20;;;;;;;;;;5124525;27;24982;-59
2021/09/15 07:27:21;;;;;;;8.80;8.20;;;;;;;;;;5115243;27;24570;-59
2021/09/15 07:29:46;;;;;;;8.60;7.90;;;;;;;;;;5108223;27;24992;-59
2021/09/15 07:32:11;;;;;;;9.00;8.40;;;;;;;;;;5108990;27;24782;-59
2021/09/15 07:34:39;;;;;;;9.48;8.68;;;;;;;;;;5110083;27;24989;-59
2021/09/15 07:37:05;;;;;;;9.60;9.00;;;;;;;;;;5116941;27;24418;-59
2021/09/15 07:39:30;;;;;;;9.30;8.60;;;;;;;;;;5107254;27;25053;-59
2021/09/15 07:41:55;;;;;;;9.43;8.53;;;;;;;;;;5119328;27;24769;-59
2021/09/15 07:44:20;;;;;;;9.35;8.60;;;;;;;;;;5117383;27;24409;-59
2021/09/15 07:46:45;;;;;;;9.60;8.90;;;;;;;;;;5121525;27;24452;-59
2021/09/15 07:49:10;;;;;;;8.77;8.18;;;;;;;;;;5126630;27;24497;-59
2021/09/15 07:51:36;;;;;;;7.27;6.77;;;;;;;;;;5127223;27;24429;-59
2021/09/15 07:54:02;;;;;;;9.30;8.60;;;;;;;;;;5125610;27;24521;-59
2021/09/15 07:56:27;;;;;;;8.80;8.20;;;;;;;;;;5125909;27;24721;-60
2021/09/15 07:58:52;;;;;;;9.03;8.43;;;;;;;;;;5124805;27;24417;-59
2021/09/15 08:01:19;;;;;;;8.80;8.20;;;;;;;;;;5124376;27;24984;-58
2021/09/15 08:03:44;;;;;;;9.40;8.80;;;;;;;;;;5123016;27;24431;-59
2021/09/15 08:06:09;;;;;;;9.77;9.07;;;;;;;;;;5110465;27;24485;-60
2021/09/15 08:08:34;;;;;;;8.30;7.80;;;;;;;;;;5121419;27;24417;-59
2021/09/15 08:11:00;;;;;;;9.37;8.67;;;;;;;;;;5118139;27;24462;-59
2021/09/15 08:13:25;;;;;;;9.63;8.93;;;;;;;;;;5122073;27;24416;-58
2021/09/15 08:15:51;;;;;;;8.82;8.13;;;;;;;;;;5125122;27;24544;-58
2021/09/15 08:18:16;;;;;;;9.37;8.67;;;;;;;;;;5125480;27;24482;-59
2021/09/15 08:20:45;;;;;;;7.60;7.10;;;;;;;;;;5126687;27;24437;-59
2021/09/15 08:23:11;;;;;;;7.80;7.30;;;;;;;;;;5127223;27;24385;-59
2021/09/15 08:25:36;;;;;;;7.57;7.07;;;;;;;;;;5126279;27;24450;-59
2021/09/15 08:28:01;;;;;;;8.80;8.20;;;;;;;;;;5126197;27;24926;-58
2021/09/15 08:30:26;;;;;;;8.70;8.10;;;;;;;;;;5126459;27;24995;-59
2021/09/15 08:32:51;;;;;;;9.52;8.82;;;;;;;;;;5126388;27;24413;-59
2021/09/15 08:35:16;;;;;;;9.32;8.63;;;;;;;;;;5126335;28;24417;-59
2021/09/15 08:37:42;;;;;;;9.80;9.10;;;;;;;;;;5126381;28;24860;-59
2021/09/15 08:40:08;;;;;;;8.88;8.18;;;;;;;;;;5126458;28;24566;-59
2021/09/15 08:42:33;;;;;;;8.73;8.10;;;;;;;;;;5125413;28;25041;-59
2021/09/15 08:44:59;;;;;;;9.10;8.50;;;;;;;;;;5126717;28;24413;-60
2021/09/15 08:47:28;;;;;;;9.70;9.00;;;;;;;;;;5126668;28;24452;-59
2021/09/15 08:49:54;;;;;;;7.75;7.25;;;;;;;;;;5126742;28;24404;-60
2021/09/15 08:52:19;;;;;;;9.00;8.15;;;;;;;;;;5125989;28;24839;-59
2021/09/15 08:54:44;;;;;;;9.53;8.63;;;;;;;;;;5126543;28;24492;-60
2021/09/15 08:57:09;;;;;;;9.40;8.70;;;;;;;;;;5126571;28;24458;-59
2021/09/15 08:59:35;;;;;;;9.20;8.60;;;;;;;;;;5125978;28;25038;-59
2021/09/15 09:02:07;;;;;;;8.93;8.23;;;;;;;;;;5126460;28;24503;-59
2021/09/15 09:04:48;;;;;;;7.60;7.05;;;;;;;;;;5126090;28;24484;-59
2021/09/15 09:07:13;;;;;;;6.93;6.53;;;;;;;;;;5126623;28;24521;-60
2021/09/15 09:09:45;;;;;;;8.40;7.70;;;;;;;;;;5126220;28;25018;-60
2021/09/15 09:12:10;;;;;;;8.82;8.23;;;;;;;;;;5110643;28;24416;-60
2021/09/15 09:14:35;;;;;;;8.05;7.45;;;;;;;;;;5126343;28;24832;-59
2021/09/15 09:17:00;;;;;;;7.90;7.30;;;;;;;;;;5126686;28;24664;-60
2021/09/15 09:19:28;;;;;;;8.30;7.70;;;;;;;;;;5125720;28;24614;-60
2021/09/15 09:21:53;;;;;;;9.10;8.20;;;;;;;;;;5126107;28;24485;-59
2021/09/15 09:24:23;;;;;;;7.90;7.40;;;;;;;;;;5126046;28;24963;-59
2021/09/15 09:27:02;;;;;;;8.80;8.10;;;;;;;;;;5126679;28;24389;-61
2021/09/15 09:29:34;;;;;;;8.00;7.50;;;;;;;;;;5125863;28;24773;-60
2021/09/15 09:32:07;;;;;;;7.72;7.22;;;;;;;;;;5125475;28;24467;-60
2021/09/15 09:34:42;;;;;;;8.13;7.53;;;;;;;;;;5126136;28;25018;-59
2021/09/15 09:37:12;;;;;;;8.30;7.70;;;;;;;;;;5126164;27;24443;-59
2021/09/15 09:39:42;;;;;;;7.55;7.00;;;;;;;;;;5128826;27;24421;-59
2021/09/15 09:42:27;;;;;;;7.63;7.00;;;;;;;;;;5129490;27;24416;-59
2021/09/15 09:44:53;;;;;;;7.93;7.32;;;;;;;;;;5129511;27;24493;-60
2021/09/15 09:47:19;;;;;;;7.65;7.05;;;;;;;;;;5129619;27;24412;-60
2021/09/15 09:49:59;;;;;;;7.35;6.85;;;;;;;;;;5130029;27;24406;-59
2021/09/15 09:52:24;;;;;;;7.78;7.07;;;;;;;;;;5129273;27;24413;-60
2021/09/15 09:54:57;;;;;;;7.70;7.20;;;;;;;;;;5129632;27;24963;-60
2021/09/15 09:57:22;;;;;;;7.72;7.22;;;;;;;;;;5129709;27;24401;-60
2021/09/15 09:59:47;;;;;;;8.07;7.47;;;;;;;;;;5129441;27;24436;-60
2021/09/15 10:02:12;;;;;;;7.60;7.10;;;;;;;;;;5129436;27;24409;-60
2021/09/15 10:04:38;;;;;;;7.60;7.10;;;;;;;;;;5129143;27;24471;-59
2021/09/15 10:07:04;;;;;;;8.10;7.50;;;;;;;;;;5129623;27;24429;-60
2021/09/15 10:09:30;;;;;;;7.70;7.10;;;;;;;;;;5129031;27;24519;-60
2021/09/15 10:11:56;;;;;;;7.40;6.80;;;;;;;;;;5129149;27;24855;-60
2021/09/15 10:14:22;;;;;;;7.95;7.35;;;;;;;;;;5128947;27;24413;-60
2021/09/15 10:16:52;;;;;;;7.90;7.30;;;;;;;;;;5129560;27;24755;-60
2021/09/15 10:19:18;;;;;;;7.38;6.88;;;;;;;;;;5128948;27;24968;-60
2021/09/15 10:21:54;;;;;;;7.03;6.53;;;;;;;;;;5129487;27;24409;-60
2021/09/15 10:24:19;;;;;;;7.97;7.47;;;;;;;;;;5128492;27;24500;-60
2021/09/15 10:26:45;;;;;;;7.97;7.47;;;;;;;;;;5129200;27;24516;-60
2021/09/15 10:29:14;;;;;;;7.63;7.03;;;;;;;;;;5129254;27;24397;-60
2021/09/15 10:31:58;;;;;;;7.70;7.10;;;;;;;;;;5128301;27;24755;-60
2021/09/15 10:34:38;;;;;;;7.40;6.80;;;;;;;;;;5128294;27;24429;-60
2021/09/15 10:37:26;;;;;;;7.80;7.30;;;;;;;;;;5128930;27;24981;-60
2021/09/15 10:39:53;;;;;;;7.60;7.00;;;;;;;;;;5128294;27;24441;-60
2021/09/15 10:42:37;;;;;;;7.72;7.13;;;;;;;;;;5128886;27;24404;-59
2021/09/15 10:45:12;;;;;;;7.43;6.93;;;;;;;;;;5127849;27;24543;-60
2021/09/15 10:47:38;;;;;;;7.30;6.80;;;;;;;;;;5129185;27;24407;-59
2021/09/15 10:50:04;;;;;;;6.90;6.37;;;;;;;;;;5127961;27;24425;-60
2021/09/15 10:52:30;;;;;;;7.35;6.75;;;;;;;;;;5128459;27;24445;-61
2021/09/15 10:54:56;;;;;;;7.30;6.80;;;;;;;;;;5128444;27;24960;-61
2021/09/15 10:57:21;;;;;;;7.03;6.53;;;;;;;;;;5128284;27;24485;-60
2021/09/15 10:59:46;;;;;;;7.65;7.05;;;;;;;;;;5128201;27;24507;-60
2021/09/15 11:02:28;;;;;;;8.03;7.43;;;;;;;;;;5128353;27;24421;-60
2021/09/15 11:04:53;;;;;;;7.43;6.93;;;;;;;;;;5126491;27;25011;-60
2021/09/15 11:07:38;;;;;;;7.47;6.97;;;;;;;;;;5123262;27;24416;-61
2021/09/15 11:10:03;;;;;;;7.38;6.78;;;;;;;;;;5107789;28;24395;-62
2021/09/15 11:12:44;;;;;;;7.50;7.00;;;;;;;;;;5108222;27;24761;-59
2021/09/15 11:15:25;;;;;;;7.00;6.50;;;;;;;;;;5112682;27;26112;-60
2021/09/15 11:17:51;;;;;;;7.10;6.60;;;;;;;;;;5120292;27;25052;-60
2021/09/15 11:20:23;;;;;;;7.32;6.82;;;;;;;;;;5113897;27;24530;-60
2021/09/15 11:22:49;;;;;;;7.00;6.60;;;;;;;;;;5117394;27;24466;-60
2021/09/15 11:25:18;;;;;;;6.82;6.32;;;;;;;;;;5110770;27;24578;-61
2021/09/15 11:28:02;;;;;;;7.55;6.95;;;;;;;;;;5114844;27;25034;-61
2021/09/15 11:30:27;;;;;;;7.40;6.90;;;;;;;;;;5107395;28;24410;-62
2021/09/15 11:32:53;;;;;;;7.43;6.83;;;;;;;;;;5111432;27;25018;-61
2021/09/15 11:35:21;;;;;;;7.30;6.70;;;;;;;;;;5125656;27;24413;-62
2021/09/15 11:37:46;;;;;;;6.53;6.10;;;;;;;;;;5096361;27;24405;-61
2021/09/15 11:40:11;;;;;;;7.45;6.95;;;;;;;;;;5112532;27;25048;-59
2021/09/15 11:42:36;;;;;;;6.33;5.93;;;;;;;;;;5108130;27;24445;-59
2021/09/15 11:45:14;;;;;;;6.73;6.23;;;;;;;;;;5112900;27;24441;-59
2021/09/15 11:47:42;;;;;;;7.13;6.63;;;;;;;;;;5118530;27;24461;-59
2021/09/15 11:50:21;;;;;;;7.22;6.72;;;;;;;;;;5125732;27;24525;-58
2021/09/15 11:52:49;;;;;;;6.82;6.32;;;;;;;;;;5107553;28;24390;-59
2021/09/15 11:55:17;;;;;;;6.07;5.68;;;;;;;;;;5111560;27;25211;-60
2021/09/15 11:57:43;;;;;;;6.20;5.80;;;;;;;;;;5121096;27;24432;-60
2021/09/15 12:00:08;;;;;;;6.20;5.80;;;;;;;;;;5111709;27;24433;-60
2021/09/15 12:02:35;;;;;;;6.70;6.30;;;;;;;;;;5113634;27;24409;-60
2021/09/15 12:05:00;;;;;;;7.60;6.90;;;;;;;;;;5120898;27;24431;-60
2021/09/15 12:07:27;;;;;;;6.63;6.23;;;;;;;;;;5117055;27;24927;-60
2021/09/15 12:09:52;;;;;;;7.40;6.90;;;;;;;;;;5126205;27;24468;-60
2021/09/15 12:12:17;;;;;;;6.50;6.00;;;;;;;;;;5120668;27;24462;-59
2021/09/15 12:14:47;;;;;;;7.20;6.70;;;;;;;;;;5127306;27;25119;-60
2021/09/15 12:17:13;;;;;;;7.10;6.60;;;;;;;;;;5114595;27;24410;-59
2021/09/15 12:19:45;;;;;;;7.68;7.07;;;;;;;;;;5118661;27;24582;-60
2021/09/15 12:22:17;;;;;;;7.00;6.55;;;;;;;;;;5117106;27;24955;-60
2021/09/15 12:24:54;;;;;;;7.38;6.88;;;;;;;;;;5120174;27;24548;-60
2021/09/15 12:27:20;;;;;;;6.50;6.10;;;;;;;;;;5124814;27;24834;-60
2021/09/15 12:29:55;;;;;;;7.30;6.80;;;;;;;;;;5125992;27;24485;-60
2021/09/15 12:32:26;;;;;;;6.60;6.20;;;;;;;;;;5125597;27;25323;-60
2021/09/15 12:34:53;;;;;;;6.72;6.30;;;;;;;;;;5124636;27;24453;-60
2021/09/15 12:37:19;;;;;;;6.30;5.90;;;;;;;;;;5125838;28;24423;-60
2021/09/15 12:39:59;;;;;;;6.20;5.80;;;;;;;;;;5117139;28;24512;-60
2021/09/15 12:42:25;;;;;;;5.90;5.60;;;;;;;;;;5123230;28;24462;-60
2021/09/15 12:45:04;;;;;;;6.65;6.15;;;;;;;;;;5126836;28;24459;-60
2021/09/15 12:47:43;;;;;;;5.85;5.45;;;;;;;;;;5123816;28;24412;-62
2021/09/15 12:50:17;;;;;;;6.20;5.80;;;;;;;;;;5119204;28;24979;-60
2021/09/15 12:52:43;;;;;;;7.05;6.53;;;;;;;;;;5109117;28;24562;-59
2021/09/15 12:55:08;;;;;;;7.88;7.38;;;;;;;;;;5112222;28;24501;-59
2021/09/15 12:57:34;;;;;;;7.80;7.20;;;;;;;;;;5119232;28;24432;-59
2021/09/15 13:00:19;;;;;;;8.45;7.85;;;;;;;;;;5093327;28;24429;-59
2021/09/15 13:03:02;;;;;;;8.73;8.13;;;;;;;;;;5113312;28;24402;-58
2021/09/15 13:05:27;;;;;;;9.25;8.57;;;;;;;;;;5117027;28;24410;-59
2021/09/15 13:07:53;;;;;;;10.00;9.30;;;;;;;;;;5117942;28;24653;-59
2021/09/15 13:10:19;;;;;;;9.13;8.45;;;;;;;;;;5112671;28;24424;-59
2021/09/15 13:12:44;;;;;;;9.53;8.73;;;;;;;;;;5122152;27;24777;-59
2021/09/15 13:15:09;;;;;;;9.37;8.67;;;;;;;;;;5127614;27;24629;-58
2021/09/15 13:17:34;;;;;;;9.80;9.00;;;;;;;;;;5127104;27;24409;-59
2021/09/15 13:19:59;;;;;;;9.40;8.70;;;;;;;;;;5129980;27;24729;-59
2021/09/15 13:22:25;;;;;;;8.23;7.70;;;;;;;;;;5130137;27;24932;-59
2021/09/15 13:24:50;;;;;;;8.40;7.80;;;;;;;;;;5130689;27;24400;-59
2021/09/15 13:27:16;;;;;;;7.70;7.20;;;;;;;;;;5121581;27;24492;-58
2021/09/15 13:29:41;;;;;;;7.10;6.60;;;;;;;;;;5124284;27;24774;-59
2021/09/15 13:32:07;;;;;;;6.40;6.00;;;;;;;;;;5109328;28;24781;-59
2021/09/15 13:34:33;;;;;;;6.80;6.40;;;;;;;;;;5120689;27;24424;-59
2021/09/15 13:36:58;;;;;;;6.80;6.40;;;;;;;;;;5129804;27;24428;-59
2021/09/15 13:39:23;;;;;;;7.20;6.70;;;;;;;;;;5129305;27;24425;-59
2021/09/15 13:41:48;;;;;;;7.38;6.88;;;;;;;;;;5123357;27;24505;-59
2021/09/15 13:44:14;;;;;;;8.33;7.73;;;;;;;;;;5109373;28;24400;-59
2021/09/15 13:46:39;;;;;;;8.80;8.10;;;;;;;;;;5120203;27;24409;-60
2021/09/15 13:49:04;;;;;;;7.47;6.97;;;;;;;;;;5119423;27;24417;-59
2021/09/15 13:51:29;;;;;;;7.32;6.82;;;;;;;;;;5129498;27;24423;-59
2021/09/15 13:53:55;;;;;;;6.75;6.30;;;;;;;;;;5129947;27;24409;-59
2021/09/15 13:56:20;;;;;;;8.20;7.60;;;;;;;;;;5128539;27;24397;-59
2021/09/15 13:58:45;;;;;;;7.30;6.80;;;;;;;;;;5129646;27;24442;-59
2021/09/15 14:01:11;;;;;;;7.90;7.30;;;;;;;;;;5128948;27;24838;-59
2021/09/15 14:03:36;;;;;;;8.80;8.20;;;;;;;;;;5110880;27;24944;-59
2021/09/15 14:06:01;;;;;;;8.30;7.70;;;;;;;;;;5122661;27;24467;-59
2021/09/15 14:08:26;;;;;;;8.97;8.33;;;;;;;;;;5120003;27;24501;-59
2021/09/15 14:10:51;;;;;;;9.05;8.45;;;;;;;;;;5119118;27;24478;-59
2021/09/15 14:13:16;;;;;;;9.55;8.85;;;;;;;;;;5108622;27;24513;-59
2021/09/15 14:15:41;;;;;;;9.30;8.60;;;;;;;;;;5112951;27;24433;-60
2021/09/15 14:18:07;;;;;;;10.77;9.97;;;;;;;;;;5122145;27;24761;-59
2021/09/15 14:20:32;;;;;;;10.65;9.85;;;;;;;;;;5116947;27;24532;-59
2021/09/15 14:22:57;;;;;;;9.18;8.57;;;;;;;;;;5125331;27;24420;-59
2021/09/15 14:25:22;;;;;;;8.27;7.77;;;;;;;;;;5120997;27;24882;-59
2021/09/15 14:27:47;;;;;;;8.40;7.90;;;;;;;;;;5120717;27;24405;-60
2021/09/15 14:30:16;;;;;;;8.60;8.00;;;;;;;;;;5111836;27;24808;-59
2021/09/15 14:32:41;;;;;;;10.00;9.30;;;;;;;;;;5122363;27;24472;-59
2021/09/15 14:35:06;;;;;;;10.43;9.73;;;;;;;;;;5122683;27;24445;-60
2021/09/15 14:37:31;;;;;;;9.30;8.70;;;;;;;;;;5122618;27;24918;-59
2021/09/15 14:39:57;;;;;;;10.52;9.73;;;;;;;;;;5125645;27;24493;-58